sensor_id;sensor_type;location;lat;lon;timestamp;temperature;humidity
12504;DHT22;6316;48.118;-1.690;2024-01-07T00:01:30;5.40;99.90
12504;DHT22;6316;48.118;-1.690;2024-01-07T00:03:56;5.40;99.90
12504;DHT22;6316;48.118;-1.690;2024-01-07T00:06:21;5.40;99.90
12504;DHT22;6316;48.118;-1.690;2024-01-07T00:08:47;5.40;99.90
12504;DHT22;6316;48.118;-1.690;2024-01-07T00:11:13;5.40;99.90
12504;DHT22;6316;48.118;-1.690;2024-01-07T00:13:38;5.30;99.90
12504;DHT22;6316;48.118;-1.690;2024-01-07T00:16:04;5.30;99.90
12504;DHT22;6316;48.118;-1.690;2024-01-07T00:18:30;5.30;99.90
12504;DHT22;6316;48.118;-1.690;2024-01-07T00:20:55;5.30;99.90
12504;DHT22;6316;48.118;-1.690;2024-01-07T00:23:21;5.30;99.90
12504;DHT22;6316;48.118;-1.690;2024-01-07T00:25:47;5.20;99.90
12504;DHT22;6316;48.118;-1.690;2024-01-07T00:28:13;5.20;99.90
12504;DHT22;6316;48.118;-1.690;2024-01-07T00:30:38;5.30;99.90
12504;DHT22;6316;48.118;-1.690;2024-01-07T00:33:04;5.30;99.90
12504;DHT22;6316;48.118;-1.690;2024-01-07T00:35:30;5.20;99.90
12504;DHT22;6316;48.118;-1.690;2024-01-07T00:37:55;5.00;99.90
12504;DHT22;6316;48.118;-1.690;2024-01-07T00:40:24;5.20;99.90
12504;DHT22;6316;48.118;-1.690;2024-01-07T00:42:50;5.00;99.90
12504;DHT22;6316;48.118;-1.690;2024-01-07T00:45:17;5.00;99.90
12504;DHT22;6316;48.118;-1.690;2024-01-07T00:47:43;5.00;99.90
12504;DHT22;6316;48.118;-1.690;2024-01-07T00:50:08;5.10;99.90
12504;DHT22;6316;48.118;-1.690;2024-01-07T00:52:34;5.00;99.90
12504;DHT22;6316;48.118;-1.690;2024-01-07T00:55:05;5.00;99.90
12504;DHT22;6316;48.118;-1.690;2024-01-07T00:57:32;5.00;99.90
12504;DHT22;6316;48.118;-1.690;2024-01-07T00:59:59;5.00;99.90
12504;DHT22;6316;48.118;-1.690;2024-01-07T01:02:25;5.00;99.90
12504;DHT22;6316;48.118;-1.690;2024-01-07T01:04:50;5.00;99.90
12504;DHT22;6316;48.118;-1.690;2024-01-07T01:07:16;5.00;99.90
12504;DHT22;6316;48.118;-1.690;2024-01-07T01:09:42;5.00;99.90
12504;DHT22;6316;48.118;-1.690;2024-01-07T01:12:07;5.00;99.90
12504;DHT22;6316;48.118;-1.690;2024-01-07T01:14:33;5.00;99.90
12504;DHT22;6316;48.118;-1.690;2024-01-07T01:16:59;5.00;99.90
12504;DHT22;6316;48.118;-1.690;2024-01-07T01:19:24;5.00;99.90
12504;DHT22;6316;48.118;-1.690;2024-01-07T01:21:50;4.90;99.90
12504;DHT22;6316;48.118;-1.690;2024-01-07T01:24:16;4.90;99.90
12504;DHT22;6316;48.118;-1.690;2024-01-07T01:26:41;4.90;99.90
12504;DHT22;6316;48.118;-1.690;2024-01-07T01:29:07;4.80;99.90
12504;DHT22;6316;48.118;-1.690;2024-01-07T01:31:33;4.80;99.90
12504;DHT22;6316;48.118;-1.690;2024-01-07T01:33:58;4.80;99.90
12504;DHT22;6316;48.118;-1.690;2024-01-07T01:36:24;4.80;99.90
12504;DHT22;6316;48.118;-1.690;2024-01-07T01:38:49;4.80;99.90
12504;DHT22;6316;48.118;-1.690;2024-01-07T01:41:18;4.70;99.90
12504;DHT22;6316;48.118;-1.690;2024-01-07T01:43:44;4.70;99.90
12504;DHT22;6316;48.118;-1.690;2024-01-07T01:46:09;4.70;99.90
12504;DHT22;6316;48.118;-1.690;2024-01-07T01:48:38;4.70;99.90
12504;DHT22;6316;48.118;-1.690;2024-01-07T01:51:04;4.60;99.90
12504;DHT22;6316;48.118;-1.690;2024-01-07T01:53:31;4.60;99.90
12504;DHT22;6316;48.118;-1.690;2024-01-07T01:55:58;4.70;99.90
12504;DHT22;6316;48.118;-1.690;2024-01-07T01:58:26;4.70;99.90
12504;DHT22;6316;48.118;-1.690;2024-01-07T02:00:53;4.70;99.90
12504;DHT22;6316;48.118;-1.690;2024-01-07T02:03:19;4.40;99.90
12504;DHT22;6316;48.118;-1.690;2024-01-07T02:05:45;4.50;99.90
12504;DHT22;6316;48.118;-1.690;2024-01-07T02:08:11;4.50;99.90
12504;DHT22;6316;48.118;-1.690;2024-01-07T02:10:37;4.50;99.90
12504;DHT22;6316;48.118;-1.690;2024-01-07T02:13:03;4.50;99.90
12504;DHT22;6316;48.118;-1.690;2024-01-07T02:15:30;4.50;99.90
12504;DHT22;6316;48.118;-1.690;2024-01-07T02:17:56;4.50;99.90
12504;DHT22;6316;48.118;-1.690;2024-01-07T02:20:22;4.50;99.90
12504;DHT22;6316;48.118;-1.690;2024-01-07T02:22:48;4.50;99.90
12504;DHT22;6316;48.118;-1.690;2024-01-07T02:25:14;4.50;99.90
12504;DHT22;6316;48.118;-1.690;2024-01-07T02:27:39;4.50;99.90
12504;DHT22;6316;48.118;-1.690;2024-01-07T02:30:05;4.50;99.90
12504;DHT22;6316;48.118;-1.690;2024-01-07T02:32:31;4.50;99.90
12504;DHT22;6316;48.118;-1.690;2024-01-07T02:35:00;4.40;99.90
12504;DHT22;6316;48.118;-1.690;2024-01-07T02:37:26;4.40;99.90
12504;DHT22;6316;48.118;-1.690;2024-01-07T02:39:51;4.40;99.90
12504;DHT22;6316;48.118;-1.690;2024-01-07T02:42:17;4.40;99.90
12504;DHT22;6316;48.118;-1.690;2024-01-07T02:44:43;4.40;99.90
12504;DHT22;6316;48.118;-1.690;2024-01-07T02:47:08;4.40;99.90
12504;DHT22;6316;48.118;-1.690;2024-01-07T02:49:34;4.40;99.90
12504;DHT22;6316;48.118;-1.690;2024-01-07T02:52:00;4.40;99.90
12504;DHT22;6316;48.118;-1.690;2024-01-07T02:54:25;4.30;99.90
12504;DHT22;6316;48.118;-1.690;2024-01-07T02:56:51;4.40;99.90
12504;DHT22;6316;48.118;-1.690;2024-01-07T02:59:16;4.40;99.90
12504;DHT22;6316;48.118;-1.690;2024-01-07T03:01:42;4.30;99.90
12504;DHT22;6316;48.118;-1.690;2024-01-07T03:04:09;4.40;99.90
12504;DHT22;6316;48.118;-1.690;2024-01-07T03:06:35;4.50;99.90
12504;DHT22;6316;48.118;-1.690;2024-01-07T03:09:01;4.40;99.90
12504;DHT22;6316;48.118;-1.690;2024-01-07T03:11:26;4.50;99.90
12504;DHT22;6316;48.118;-1.690;2024-01-07T03:13:52;4.60;99.90
12504;DHT22;6316;48.118;-1.690;2024-01-07T03:16:22;4.60;99.90
12504;DHT22;6316;48.118;-1.690;2024-01-07T03:18:47;4.80;99.90
12504;DHT22;6316;48.118;-1.690;2024-01-07T03:21:20;4.70;99.90
12504;DHT22;6316;48.118;-1.690;2024-01-07T03:23:47;4.80;99.90
12504;DHT22;6316;48.118;-1.690;2024-01-07T03:26:13;4.80;99.90
12504;DHT22;6316;48.118;-1.690;2024-01-07T03:28:39;4.90;99.90
12504;DHT22;6316;48.118;-1.690;2024-01-07T03:31:10;4.90;99.90
12504;DHT22;6316;48.118;-1.690;2024-01-07T03:33:37;5.00;99.90
12504;DHT22;6316;48.118;-1.690;2024-01-07T03:36:13;5.00;99.90
12504;DHT22;6316;48.118;-1.690;2024-01-07T03:38:40;5.00;99.90
12504;DHT22;6316;48.118;-1.690;2024-01-07T03:41:06;5.20;99.90
12504;DHT22;6316;48.118;-1.690;2024-01-07T03:43:32;5.20;99.90
12504;DHT22;6316;48.118;-1.690;2024-01-07T03:45:58;5.20;99.90
12504;DHT22;6316;48.118;-1.690;2024-01-07T03:48:24;5.20;99.90
12504;DHT22;6316;48.118;-1.690;2024-01-07T03:50:50;5.20;99.90
12504;DHT22;6316;48.118;-1.690;2024-01-07T03:53:16;5.20;99.90
12504;DHT22;6316;48.118;-1.690;2024-01-07T03:55:42;5.30;99.90
12504;DHT22;6316;48.118;-1.690;2024-01-07T03:58:07;5.50;99.90
12504;DHT22;6316;48.118;-1.690;2024-01-07T04:00:34;5.40;99.90
12504;DHT22;6316;48.118;-1.690;2024-01-07T04:03:00;5.40;99.90
12504;DHT22;6316;48.118;-1.690;2024-01-07T04:05:25;5.40;99.90
12504;DHT22;6316;48.118;-1.690;2024-01-07T04:07:51;5.40;99.90
12504;DHT22;6316;48.118;-1.690;2024-01-07T04:10:17;5.50;99.90
12504;DHT22;6316;48.118;-1.690;2024-01-07T04:12:43;5.50;99.90
12504;DHT22;6316;48.118;-1.690;2024-01-07T04:15:09;5.50;99.90
12504;DHT22;6316;48.118;-1.690;2024-01-07T04:17:35;5.40;99.90
12504;DHT22;6316;48.118;-1.690;2024-01-07T04:20:00;5.40;99.90
12504;DHT22;6316;48.118;-1.690;2024-01-07T04:22:26;5.40;99.90
12504;DHT22;6316;48.118;-1.690;2024-01-07T04:24:52;5.30;99.90
12504;DHT22;6316;48.118;-1.690;2024-01-07T04:27:18;5.30;99.90
12504;DHT22;6316;48.118;-1.690;2024-01-07T04:29:44;5.20;99.90
12504;DHT22;6316;48.118;-1.690;2024-01-07T04:32:09;5.20;99.90
12504;DHT22;6316;48.118;-1.690;2024-01-07T04:34:35;5.30;99.90
12504;DHT22;6316;48.118;-1.690;2024-01-07T04:37:00;5.10;99.90
12504;DHT22;6316;48.118;-1.690;2024-01-07T04:39:26;5.30;99.90
12504;DHT22;6316;48.118;-1.690;2024-01-07T04:41:52;5.20;99.90
12504;DHT22;6316;48.118;-1.690;2024-01-07T04:44:17;5.20;99.90
12504;DHT22;6316;48.118;-1.690;2024-01-07T04:46:43;5.10;99.90
12504;DHT22;6316;48.118;-1.690;2024-01-07T04:49:08;5.10;99.90
12504;DHT22;6316;48.118;-1.690;2024-01-07T04:51:34;5.10;99.90
12504;DHT22;6316;48.118;-1.690;2024-01-07T04:54:02;5.00;99.90
12504;DHT22;6316;48.118;-1.690;2024-01-07T04:56:27;5.10;99.90
12504;DHT22;6316;48.118;-1.690;2024-01-07T04:58:53;5.00;99.90
12504;DHT22;6316;48.118;-1.690;2024-01-07T05:01:19;5.00;99.90
12504;DHT22;6316;48.118;-1.690;2024-01-07T05:03:44;5.00;99.90
12504;DHT22;6316;48.118;-1.690;2024-01-07T05:06:10;5.10;99.90
12504;DHT22;6316;48.118;-1.690;2024-01-07T05:08:37;5.00;99.90
12504;DHT22;6316;48.118;-1.690;2024-01-07T05:11:03;5.00;99.90
12504;DHT22;6316;48.118;-1.690;2024-01-07T05:13:30;5.00;99.90
12504;DHT22;6316;48.118;-1.690;2024-01-07T05:15:55;5.00;99.90
12504;DHT22;6316;48.118;-1.690;2024-01-07T05:18:25;5.00;99.90
12504;DHT22;6316;48.118;-1.690;2024-01-07T05:20:51;5.00;99.90
12504;DHT22;6316;48.118;-1.690;2024-01-07T05:23:16;5.00;99.90
12504;DHT22;6316;48.118;-1.690;2024-01-07T05:25:43;5.00;99.90
12504;DHT22;6316;48.118;-1.690;2024-01-07T05:28:09;5.00;99.90
12504;DHT22;6316;48.118;-1.690;2024-01-07T05:30:34;5.00;99.90
12504;DHT22;6316;48.118;-1.690;2024-01-07T05:33:00;5.00;99.90
12504;DHT22;6316;48.118;-1.690;2024-01-07T05:35:26;5.00;99.90
12504;DHT22;6316;48.118;-1.690;2024-01-07T05:37:51;5.00;99.90
12504;DHT22;6316;48.118;-1.690;2024-01-07T05:40:17;5.00;99.90
12504;DHT22;6316;48.118;-1.690;2024-01-07T05:42:42;5.10;99.90
12504;DHT22;6316;48.118;-1.690;2024-01-07T05:45:08;5.10;99.90
12504;DHT22;6316;48.118;-1.690;2024-01-07T05:47:34;5.10;99.90
12504;DHT22;6316;48.118;-1.690;2024-01-07T05:49:59;5.10;99.90
12504;DHT22;6316;48.118;-1.690;2024-01-07T05:52:25;5.20;99.90
12504;DHT22;6316;48.118;-1.690;2024-01-07T05:54:51;5.20;99.90
12504;DHT22;6316;48.118;-1.690;2024-01-07T05:57:16;5.20;99.90
12504;DHT22;6316;48.118;-1.690;2024-01-07T05:59:43;5.20;99.90
12504;DHT22;6316;48.118;-1.690;2024-01-07T06:02:09;5.30;99.90
12504;DHT22;6316;48.118;-1.690;2024-01-07T06:04:36;5.30;99.90
12504;DHT22;6316;48.118;-1.690;2024-01-07T06:07:02;5.30;99.90
12504;DHT22;6316;48.118;-1.690;2024-01-07T06:09:28;5.40;99.90
12504;DHT22;6316;48.118;-1.690;2024-01-07T06:11:54;5.40;99.90
12504;DHT22;6316;48.118;-1.690;2024-01-07T06:14:20;5.40;99.90
12504;DHT22;6316;48.118;-1.690;2024-01-07T06:16:46;5.40;99.90
12504;DHT22;6316;48.118;-1.690;2024-01-07T06:19:11;5.50;99.90
12504;DHT22;6316;48.118;-1.690;2024-01-07T06:21:37;5.50;99.90
12504;DHT22;6316;48.118;-1.690;2024-01-07T06:24:03;5.50;99.90
12504;DHT22;6316;48.118;-1.690;2024-01-07T06:26:28;5.40;99.90
12504;DHT22;6316;48.118;-1.690;2024-01-07T06:28:54;5.40;99.90
12504;DHT22;6316;48.118;-1.690;2024-01-07T06:31:19;5.40;99.90
12504;DHT22;6316;48.118;-1.690;2024-01-07T06:33:45;5.20;99.90
12504;DHT22;6316;48.118;-1.690;2024-01-07T06:36:10;5.20;99.90
12504;DHT22;6316;48.118;-1.690;2024-01-07T06:38:36;5.10;99.90
12504;DHT22;6316;48.118;-1.690;2024-01-07T06:41:02;5.10;99.90
12504;DHT22;6316;48.118;-1.690;2024-01-07T06:43:30;5.00;99.90
12504;DHT22;6316;48.118;-1.690;2024-01-07T06:45:55;5.00;99.90
12504;DHT22;6316;48.118;-1.690;2024-01-07T06:48:21;5.00;99.90
12504;DHT22;6316;48.118;-1.690;2024-01-07T06:50:47;4.90;99.90
12504;DHT22;6316;48.118;-1.690;2024-01-07T06:53:12;5.00;99.90
12504;DHT22;6316;48.118;-1.690;2024-01-07T06:55:38;5.10;99.90
12504;DHT22;6316;48.118;-1.690;2024-01-07T06:58:04;5.10;99.90
12504;DHT22;6316;48.118;-1.690;2024-01-07T07:00:29;5.10;99.90
12504;DHT22;6316;48.118;-1.690;2024-01-07T07:02:55;5.20;99.90
12504;DHT22;6316;48.118;-1.690;2024-01-07T07:05:20;5.10;99.90
12504;DHT22;6316;48.118;-1.690;2024-01-07T07:07:46;5.20;99.90
12504;DHT22;6316;48.118;-1.690;2024-01-07T07:10:12;5.20;99.90
12504;DHT22;6316;48.118;-1.690;2024-01-07T07:12:37;5.20;99.90
12504;DHT22;6316;48.118;-1.690;2024-01-07T07:15:03;5.20;99.90
12504;DHT22;6316;48.118;-1.690;2024-01-07T07:17:29;5.30;99.90
12504;DHT22;6316;48.118;-1.690;2024-01-07T07:19:54;5.30;99.90
12504;DHT22;6316;48.118;-1.690;2024-01-07T07:22:20;5.20;99.90
12504;DHT22;6316;48.118;-1.690;2024-01-07T07:24:46;5.30;99.90
12504;DHT22;6316;48.118;-1.690;2024-01-07T07:27:11;5.20;99.90
12504;DHT22;6316;48.118;-1.690;2024-01-07T07:29:37;5.20;99.90
12504;DHT22;6316;48.118;-1.690;2024-01-07T07:32:02;5.20;99.90
12504;DHT22;6316;48.118;-1.690;2024-01-07T07:34:28;5.10;99.90
12504;DHT22;6316;48.118;-1.690;2024-01-07T07:36:54;5.10;99.90
12504;DHT22;6316;48.118;-1.690;2024-01-07T07:39:21;5.00;99.90
12504;DHT22;6316;48.118;-1.690;2024-01-07T07:41:46;5.00;99.90
12504;DHT22;6316;48.118;-1.690;2024-01-07T07:44:13;5.00;99.90
12504;DHT22;6316;48.118;-1.690;2024-01-07T07:46:39;4.90;99.90
12504;DHT22;6316;48.118;-1.690;2024-01-07T07:49:04;4.90;99.90
12504;DHT22;6316;48.118;-1.690;2024-01-07T07:51:31;4.90;99.90
12504;DHT22;6316;48.118;-1.690;2024-01-07T07:53:56;4.90;99.90
12504;DHT22;6316;48.118;-1.690;2024-01-07T07:56:22;4.80;99.90
12504;DHT22;6316;48.118;-1.690;2024-01-07T07:58:48;4.70;99.90
12504;DHT22;6316;48.118;-1.690;2024-01-07T08:01:14;4.80;99.90
12504;DHT22;6316;48.118;-1.690;2024-01-07T08:03:39;4.80;99.90
12504;DHT22;6316;48.118;-1.690;2024-01-07T08:06:05;4.70;99.90
12504;DHT22;6316;48.118;-1.690;2024-01-07T08:08:31;4.70;99.90
12504;DHT22;6316;48.118;-1.690;2024-01-07T08:10:56;4.70;99.90
12504;DHT22;6316;48.118;-1.690;2024-01-07T08:13:22;4.70;99.90
12504;DHT22;6316;48.118;-1.690;2024-01-07T08:15:47;4.70;99.90
12504;DHT22;6316;48.118;-1.690;2024-01-07T08:18:13;4.70;99.90
12504;DHT22;6316;48.118;-1.690;2024-01-07T08:20:38;4.70;99.90
12504;DHT22;6316;48.118;-1.690;2024-01-07T08:23:04;4.80;99.90
12504;DHT22;6316;48.118;-1.690;2024-01-07T08:25:31;4.70;99.90
12504;DHT22;6316;48.118;-1.690;2024-01-07T08:27:57;4.80;99.90
12504;DHT22;6316;48.118;-1.690;2024-01-07T08:30:23;4.80;99.90
12504;DHT22;6316;48.118;-1.690;2024-01-07T08:32:49;4.90;99.90
12504;DHT22;6316;48.118;-1.690;2024-01-07T08:35:14;4.90;99.90
12504;DHT22;6316;48.118;-1.690;2024-01-07T08:37:40;5.00;99.90
12504;DHT22;6316;48.118;-1.690;2024-01-07T08:40:06;4.90;99.90
12504;DHT22;6316;48.118;-1.690;2024-01-07T08:42:35;4.90;99.90
12504;DHT22;6316;48.118;-1.690;2024-01-07T08:45:01;4.90;99.90
12504;DHT22;6316;48.118;-1.690;2024-01-07T08:47:29;4.90;99.90
12504;DHT22;6316;48.118;-1.690;2024-01-07T08:49:56;4.90;99.90
12504;DHT22;6316;48.118;-1.690;2024-01-07T08:52:22;4.90;99.90
12504;DHT22;6316;48.118;-1.690;2024-01-07T08:54:48;5.00;99.90
12504;DHT22;6316;48.118;-1.690;2024-01-07T08:57:13;5.10;99.90
12504;DHT22;6316;48.118;-1.690;2024-01-07T08:59:39;5.10;99.90
12504;DHT22;6316;48.118;-1.690;2024-01-07T09:02:05;5.00;99.90
12504;DHT22;6316;48.118;-1.690;2024-01-07T09:04:30;5.00;99.90
12504;DHT22;6316;48.118;-1.690;2024-01-07T09:06:57;5.10;99.90
12504;DHT22;6316;48.118;-1.690;2024-01-07T09:09:22;5.10;99.90
12504;DHT22;6316;48.118;-1.690;2024-01-07T09:11:48;5.20;99.90
12504;DHT22;6316;48.118;-1.690;2024-01-07T09:14:14;5.30;99.90
12504;DHT22;6316;48.118;-1.690;2024-01-07T09:16:40;5.30;99.90
12504;DHT22;6316;48.118;-1.690;2024-01-07T09:19:05;5.40;99.90
12504;DHT22;6316;48.118;-1.690;2024-01-07T09:21:31;5.40;99.90
12504;DHT22;6316;48.118;-1.690;2024-01-07T09:23:57;5.40;99.90
12504;DHT22;6316;48.118;-1.690;2024-01-07T09:26:23;5.40;99.90
12504;DHT22;6316;48.118;-1.690;2024-01-07T09:28:50;5.40;99.90
12504;DHT22;6316;48.118;-1.690;2024-01-07T09:31:15;5.50;99.90
12504;DHT22;6316;48.118;-1.690;2024-01-07T09:33:41;5.50;99.90
12504;DHT22;6316;48.118;-1.690;2024-01-07T09:36:07;5.50;99.90
12504;DHT22;6316;48.118;-1.690;2024-01-07T09:38:33;5.60;99.90
12504;DHT22;6316;48.118;-1.690;2024-01-07T09:40:58;5.70;99.90
12504;DHT22;6316;48.118;-1.690;2024-01-07T09:43:24;5.70;99.90
12504;DHT22;6316;48.118;-1.690;2024-01-07T09:45:51;5.80;99.90
12504;DHT22;6316;48.118;-1.690;2024-01-07T09:48:18;5.90;99.90
12504;DHT22;6316;48.118;-1.690;2024-01-07T09:50:44;6.00;99.90
12504;DHT22;6316;48.118;-1.690;2024-01-07T09:53:15;6.00;99.90
12504;DHT22;6316;48.118;-1.690;2024-01-07T09:55:56;6.00;99.90
12504;DHT22;6316;48.118;-1.690;2024-01-07T09:58:22;6.10;99.90
12504;DHT22;6316;48.118;-1.690;2024-01-07T10:00:48;6.10;99.90
12504;DHT22;6316;48.118;-1.690;2024-01-07T10:03:14;6.10;99.90
12504;DHT22;6316;48.118;-1.690;2024-01-07T10:05:40;6.20;99.90
12504;DHT22;6316;48.118;-1.690;2024-01-07T10:08:06;6.30;99.90
12504;DHT22;6316;48.118;-1.690;2024-01-07T10:10:35;6.40;99.90
12504;DHT22;6316;48.118;-1.690;2024-01-07T10:13:01;6.40;99.90
12504;DHT22;6316;48.118;-1.690;2024-01-07T10:15:26;6.50;99.90
12504;DHT22;6316;48.118;-1.690;2024-01-07T10:17:55;6.60;99.90
12504;DHT22;6316;48.118;-1.690;2024-01-07T10:20:21;6.60;99.90
12504;DHT22;6316;48.118;-1.690;2024-01-07T10:22:50;6.70;99.90
12504;DHT22;6316;48.118;-1.690;2024-01-07T10:25:15;6.80;99.90
12504;DHT22;6316;48.118;-1.690;2024-01-07T10:27:41;6.80;99.90
12504;DHT22;6316;48.118;-1.690;2024-01-07T10:30:07;6.80;99.90
12504;DHT22;6316;48.118;-1.690;2024-01-07T10:32:35;6.80;99.90
12504;DHT22;6316;48.118;-1.690;2024-01-07T10:35:03;6.90;99.90
12504;DHT22;6316;48.118;-1.690;2024-01-07T10:37:30;6.90;99.90
12504;DHT22;6316;48.118;-1.690;2024-01-07T10:39:58;6.90;99.90
12504;DHT22;6316;48.118;-1.690;2024-01-07T10:42:30;6.80;99.90
12504;DHT22;6316;48.118;-1.690;2024-01-07T10:44:57;6.90;99.90
12504;DHT22;6316;48.118;-1.690;2024-01-07T10:47:23;6.90;99.90
12504;DHT22;6316;48.118;-1.690;2024-01-07T10:49:51;6.90;99.90
12504;DHT22;6316;48.118;-1.690;2024-01-07T10:52:16;7.00;99.90
12504;DHT22;6316;48.118;-1.690;2024-01-07T10:54:44;7.00;99.90
12504;DHT22;6316;48.118;-1.690;2024-01-07T10:57:24;7.00;99.90
12504;DHT22;6316;48.118;-1.690;2024-01-07T10:59:52;7.10;99.90
12504;DHT22;6316;48.118;-1.690;2024-01-07T11:02:20;7.10;99.90
12504;DHT22;6316;48.118;-1.690;2024-01-07T11:05:06;7.10;99.90
12504;DHT22;6316;48.118;-1.690;2024-01-07T11:07:49;7.00;99.90
12504;DHT22;6316;48.118;-1.690;2024-01-07T11:10:26;7.00;99.90
12504;DHT22;6316;48.118;-1.690;2024-01-07T11:12:56;7.10;99.90
12504;DHT22;6316;48.118;-1.690;2024-01-07T11:18:19;7.10;99.90
12504;DHT22;6316;48.118;-1.690;2024-01-07T11:20:46;7.10;99.90
12504;DHT22;6316;48.118;-1.690;2024-01-07T11:23:35;7.10;99.90
12504;DHT22;6316;48.118;-1.690;2024-01-07T11:26:06;7.20;99.90
12504;DHT22;6316;48.118;-1.690;2024-01-07T11:31:42;7.20;99.90
12504;DHT22;6316;48.118;-1.690;2024-01-07T11:34:10;7.20;99.90
12504;DHT22;6316;48.118;-1.690;2024-01-07T11:36:36;7.20;99.90
12504;DHT22;6316;48.118;-1.690;2024-01-07T11:39:03;7.10;99.90
12504;DHT22;6316;48.118;-1.690;2024-01-07T11:41:33;7.10;99.90
12504;DHT22;6316;48.118;-1.690;2024-01-07T11:43:59;7.10;99.90
12504;DHT22;6316;48.118;-1.690;2024-01-07T11:46:26;7.10;99.90
12504;DHT22;6316;48.118;-1.690;2024-01-07T11:48:56;7.10;99.90
12504;DHT22;6316;48.118;-1.690;2024-01-07T11:51:26;7.10;99.90
12504;DHT22;6316;48.118;-1.690;2024-01-07T11:53:52;7.20;99.90
12504;DHT22;6316;48.118;-1.690;2024-01-07T11:56:18;7.20;99.90
12504;DHT22;6316;48.118;-1.690;2024-01-07T11:58:44;7.20;99.90
12504;DHT22;6316;48.118;-1.690;2024-01-07T12:01:09;7.30;99.90
12504;DHT22;6316;48.118;-1.690;2024-01-07T12:03:35;7.30;99.90
12504;DHT22;6316;48.118;-1.690;2024-01-07T12:06:01;7.40;99.90
12504;DHT22;6316;48.118;-1.690;2024-01-07T12:08:27;7.40;99.90
12504;DHT22;6316;48.118;-1.690;2024-01-07T12:10:54;7.50;99.90
12504;DHT22;6316;48.118;-1.690;2024-01-07T12:13:20;7.50;99.90
12504;DHT22;6316;48.118;-1.690;2024-01-07T12:15:46;7.50;99.90
12504;DHT22;6316;48.118;-1.690;2024-01-07T12:18:12;7.50;99.90
12504;DHT22;6316;48.118;-1.690;2024-01-07T12:20:38;7.50;99.90
12504;DHT22;6316;48.118;-1.690;2024-01-07T12:23:07;7.50;99.90
12504;DHT22;6316;48.118;-1.690;2024-01-07T12:25:34;7.50;99.90
12504;DHT22;6316;48.118;-1.690;2024-01-07T12:27:59;7.50;99.90
12504;DHT22;6316;48.118;-1.690;2024-01-07T12:30:25;7.60;99.90
12504;DHT22;6316;48.118;-1.690;2024-01-07T12:32:52;7.60;99.90
12504;DHT22;6316;48.118;-1.690;2024-01-07T12:35:18;7.60;99.90
12504;DHT22;6316;48.118;-1.690;2024-01-07T12:37:43;7.60;99.90
12504;DHT22;6316;48.118;-1.690;2024-01-07T12:40:10;7.60;99.90
12504;DHT22;6316;48.118;-1.690;2024-01-07T12:42:39;7.60;99.90
12504;DHT22;6316;48.118;-1.690;2024-01-07T12:45:13;7.50;99.90
12504;DHT22;6316;48.118;-1.690;2024-01-07T12:47:40;7.40;99.90
12504;DHT22;6316;48.118;-1.690;2024-01-07T12:50:06;7.30;99.90
12504;DHT22;6316;48.118;-1.690;2024-01-07T12:52:34;7.30;99.90
12504;DHT22;6316;48.118;-1.690;2024-01-07T12:55:01;7.30;99.90
12504;DHT22;6316;48.118;-1.690;2024-01-07T12:57:26;7.20;99.90
12504;DHT22;6316;48.118;-1.690;2024-01-07T12:59:52;7.30;99.90
12504;DHT22;6316;48.118;-1.690;2024-01-07T13:02:18;7.30;99.90
12504;DHT22;6316;48.118;-1.690;2024-01-07T13:04:44;7.30;99.90
12504;DHT22;6316;48.118;-1.690;2024-01-07T13:07:09;7.30;99.90
12504;DHT22;6316;48.118;-1.690;2024-01-07T13:09:35;7.40;99.90
12504;DHT22;6316;48.118;-1.690;2024-01-07T13:12:01;7.40;99.90
12504;DHT22;6316;48.118;-1.690;2024-01-07T13:14:26;7.40;99.90
12504;DHT22;6316;48.118;-1.690;2024-01-07T13:16:52;7.40;99.90
12504;DHT22;6316;48.118;-1.690;2024-01-07T13:19:17;7.40;99.90
12504;DHT22;6316;48.118;-1.690;2024-01-07T13:21:43;7.40;99.90
12504;DHT22;6316;48.118;-1.690;2024-01-07T13:24:10;7.40;99.90
12504;DHT22;6316;48.118;-1.690;2024-01-07T13:26:35;7.40;99.90
12504;DHT22;6316;48.118;-1.690;2024-01-07T13:29:01;7.30;99.90
12504;DHT22;6316;48.118;-1.690;2024-01-07T13:31:26;7.40;99.90
12504;DHT22;6316;48.118;-1.690;2024-01-07T13:33:52;7.40;99.90
12504;DHT22;6316;48.118;-1.690;2024-01-07T13:36:18;7.50;99.90
12504;DHT22;6316;48.118;-1.690;2024-01-07T13:38:43;7.40;99.90
12504;DHT22;6316;48.118;-1.690;2024-01-07T13:41:09;7.40;99.90
12504;DHT22;6316;48.118;-1.690;2024-01-07T13:43:35;7.40;99.90
12504;DHT22;6316;48.118;-1.690;2024-01-07T13:46:02;7.40;99.90
12504;DHT22;6316;48.118;-1.690;2024-01-07T13:48:29;7.40;99.90
12504;DHT22;6316;48.118;-1.690;2024-01-07T13:50:54;7.50;99.90
12504;DHT22;6316;48.118;-1.690;2024-01-07T13:53:20;7.40;99.90
12504;DHT22;6316;48.118;-1.690;2024-01-07T13:55:46;7.50;99.90
12504;DHT22;6316;48.118;-1.690;2024-01-07T13:58:12;7.50;99.90
12504;DHT22;6316;48.118;-1.690;2024-01-07T14:00:38;7.50;99.90
12504;DHT22;6316;48.118;-1.690;2024-01-07T14:03:04;7.50;99.90
12504;DHT22;6316;48.118;-1.690;2024-01-07T14:05:30;7.50;99.90
12504;DHT22;6316;48.118;-1.690;2024-01-07T14:07:55;7.50;99.90
12504;DHT22;6316;48.118;-1.690;2024-01-07T14:10:21;7.60;99.90
12504;DHT22;6316;48.118;-1.690;2024-01-07T14:12:46;7.60;99.90
12504;DHT22;6316;48.118;-1.690;2024-01-07T14:15:13;7.60;99.90
12504;DHT22;6316;48.118;-1.690;2024-01-07T14:17:38;7.60;99.90
12504;DHT22;6316;48.118;-1.690;2024-01-07T14:20:06;7.60;99.90
12504;DHT22;6316;48.118;-1.690;2024-01-07T14:22:33;7.60;99.90
12504;DHT22;6316;48.118;-1.690;2024-01-07T14:24:58;7.50;99.90
12504;DHT22;6316;48.118;-1.690;2024-01-07T14:27:24;7.60;99.90
12504;DHT22;6316;48.118;-1.690;2024-01-07T14:29:50;7.50;99.90
12504;DHT22;6316;48.118;-1.690;2024-01-07T14:32:15;7.60;99.90
12504;DHT22;6316;48.118;-1.690;2024-01-07T14:34:41;7.60;99.90
12504;DHT22;6316;48.118;-1.690;2024-01-07T14:37:10;7.60;99.90
12504;DHT22;6316;48.118;-1.690;2024-01-07T14:39:37;7.60;99.90
12504;DHT22;6316;48.118;-1.690;2024-01-07T14:42:03;7.60;99.90
12504;DHT22;6316;48.118;-1.690;2024-01-07T14:44:29;7.60;99.90
12504;DHT22;6316;48.118;-1.690;2024-01-07T14:46:55;7.60;99.90
12504;DHT22;6316;48.118;-1.690;2024-01-07T14:49:20;7.60;99.90
12504;DHT22;6316;48.118;-1.690;2024-01-07T14:51:46;7.60;99.90
12504;DHT22;6316;48.118;-1.690;2024-01-07T14:54:12;7.50;99.90
12504;DHT22;6316;48.118;-1.690;2024-01-07T14:56:38;7.60;99.90
12504;DHT22;6316;48.118;-1.690;2024-01-07T14:59:04;7.50;99.90
12504;DHT22;6316;48.118;-1.690;2024-01-07T15:01:29;7.50;99.90
12504;DHT22;6316;48.118;-1.690;2024-01-07T15:03:55;7.50;99.90
12504;DHT22;6316;48.118;-1.690;2024-01-07T15:06:20;7.50;99.90
12504;DHT22;6316;48.118;-1.690;2024-01-07T15:08:46;7.60;99.90
12504;DHT22;6316;48.118;-1.690;2024-01-07T15:11:14;7.60;99.90
12504;DHT22;6316;48.118;-1.690;2024-01-07T15:13:40;7.60;99.90
12504;DHT22;6316;48.118;-1.690;2024-01-07T15:16:06;7.60;99.90
12504;DHT22;6316;48.118;-1.690;2024-01-07T15:18:32;7.60;99.90
12504;DHT22;6316;48.118;-1.690;2024-01-07T15:20:58;7.50;99.90
12504;DHT22;6316;48.118;-1.690;2024-01-07T15:23:23;7.40;99.90
12504;DHT22;6316;48.118;-1.690;2024-01-07T15:25:49;7.40;99.90
12504;DHT22;6316;48.118;-1.690;2024-01-07T15:28:15;7.30;99.90
12504;DHT22;6316;48.118;-1.690;2024-01-07T15:30:40;7.30;99.90
12504;DHT22;6316;48.118;-1.690;2024-01-07T15:33:06;7.30;99.90
12504;DHT22;6316;48.118;-1.690;2024-01-07T15:35:32;7.30;99.90
12504;DHT22;6316;48.118;-1.690;2024-01-07T15:37:57;7.20;99.90
12504;DHT22;6316;48.118;-1.690;2024-01-07T15:40:23;7.20;99.90
12504;DHT22;6316;48.118;-1.690;2024-01-07T15:42:50;7.10;99.90
12504;DHT22;6316;48.118;-1.690;2024-01-07T15:45:16;7.10;99.90